Time;durP1;ratioP1;P1;durP2;ratioP2;P2;SDS_P1;SDS_P2;PMS_P1;PMS_P2;Temp;Humidity;BMP_temperature;BMP_pressure;BME280_temperature;BME280_humidity;BME280_pressure;Samples;Min_cycle;Max_cycle;Signal;HPM_P1;HPM_P2
2023/01/22 00:03:54;;;;;;;7.53;4.55;;;;;;;-146.19;100.00;65364.44;10587128;28;20059;-45
2023/01/22 00:09:14;;;;;;;7.05;4.55;;;;;;;-146.19;100.00;65364.44;10586974;28;20063;-44
2023/01/22 00:14:33;;;;;;;6.22;4.30;;;;;;;-146.19;100.00;65364.44;10600249;28;20051;-45
2023/01/22 00:19:53;;;;;;;8.68;5.07;;;;;;;-146.19;100.00;65364.44;10586553;28;20120;-45
2023/01/22 00:25:13;;;;;;;6.57;4.55;;;;;;;-146.19;100.00;65364.44;10586116;28;20055;-45
2023/01/22 00:30:33;;;;;;;9.30;4.55;;;;;;;-146.19;100.00;65364.44;10585419;28;20055;-45
2023/01/22 00:35:52;;;;;;;6.28;4.32;;;;;;;-146.19;100.00;65364.44;10585820;28;20056;-44
2023/01/22 00:41:15;;;;;;;6.85;3.80;;;;;;;-146.19;100.00;65364.44;10584953;28;20572;-45
2023/01/22 00:46:35;;;;;;;5.97;4.10;;;;;;;-146.19;100.00;65364.44;10584851;28;20060;-45
2023/01/22 00:51:55;;;;;;;5.78;4.00;;;;;;;-146.19;100.00;65364.44;10585212;28;20047;-44
2023/01/22 00:57:14;;;;;;;5.63;3.88;;;;;;;-146.19;100.00;65364.44;10598448;28;20047;-45
2023/01/22 01:03:25;;;;;;;6.35;3.80;;;;;;;-146.19;100.00;65364.44;10567539;28;20048;-44
2023/01/22 01:08:17;;;;;;;5.47;3.78;;;;;;;-146.19;100.00;65364.44;10583845;28;20056;-47
2023/01/22 01:13:40;;;;;;;5.47;3.60;;;;;;;-146.19;100.00;65364.44;10568832;28;20058;-47
2023/01/22 01:19:03;;;;;;;6.18;3.80;;;;;;;-146.19;100.00;65364.44;10583994;28;20062;-44
2023/01/22 01:24:23;;;;;;;6.40;3.67;;;;;;;-146.19;100.00;65364.44;10583800;28;20055;-46
2023/01/22 01:29:42;;;;;;;6.13;3.80;;;;;;;-146.19;100.00;65364.44;10583756;28;20061;-44
2023/01/22 01:35:02;;;;;;;6.03;3.40;;;;;;;-146.19;100.00;65364.44;10583399;28;20052;-45
2023/01/22 01:40:23;;;;;;;5.18;3.58;;;;;;;-146.19;100.00;65364.44;10596753;28;20431;-44
2023/01/22 01:45:43;;;;;;;5.50;3.45;;;;;;;-146.19;100.00;65364.44;10582617;28;20062;-46
2023/01/22 01:51:06;;;;;;;5.20;3.60;;;;;;;-146.19;100.00;65364.44;10582747;28;20067;-46
2023/01/22 01:56:35;;;;;;;4.25;3.35;;;;;;;-146.19;100.00;65364.44;10582592;28;20047;-44
2023/01/22 02:01:55;;;;;;;4.88;3.38;;;;;;;-146.19;100.00;65364.44;10582393;28;20496;-53
2023/01/22 02:07:14;;;;;;;5.15;3.40;;;;;;;20.05;50.95;97200.84;10566844;28;20062;-54
2023/01/22 02:12:34;;;;;;;4.95;3.30;;;;;;;19.51;49.48;97282.13;10581015;28;20047;-53
2023/01/22 02:17:55;;;;;;;4.95;3.58;;;;;;;19.50;49.46;97286.72;10566306;28;20056;-54
2023/01/22 02:23:14;;;;;;;4.85;3.33;;;;;;;19.47;49.32;97276.53;10595244;28;20035;-54
2023/01/22 02:28:33;;;;;;;4.32;3.25;;;;;;;19.45;49.40;97284.16;10566212;28;20698;-54
2023/01/22 02:33:53;;;;;;;5.85;3.35;;;;;;;19.45;49.30;97294.16;10565431;28;20541;-54
2023/01/22 02:39:13;;;;;;;3.90;2.85;;;;;;;19.42;49.28;97292.09;10566044;28;20078;-54
2023/01/22 02:44:32;;;;;;;4.25;3.00;;;;;;;19.41;49.18;97304.81;10580918;28;20078;-53
2023/01/22 02:49:52;;;;;;;4.13;2.92;;;;;;;19.39;49.17;97317.81;10580439;28;20056;-54
2023/01/22 02:55:12;;;;;;;3.45;2.80;;;;;;;19.36;49.15;97307.63;10580966;28;20062;-52
2023/01/22 03:00:33;;;;;;;4.40;3.10;;;;;;;19.35;49.19;97316.84;10579048;28;20050;-53
2023/01/22 03:05:52;;;;;;;3.00;2.60;;;;;;;19.33;49.24;97313.66;10578861;28;20043;-53
2023/01/22 03:11:12;;;;;;;3.00;2.58;;;;;;;19.31;49.10;97305.06;10580657;28;20056;-54
2023/01/22 03:22:11;;;;;;;3.83;2.78;;;;;;;19.29;49.15;97323.50;10578585;28;20499;-54
2023/01/22 03:27:31;;;;;;;3.45;2.65;;;;;;;19.25;49.14;97328.72;10587162;28;20160;-53
2023/01/22 03:32:51;;;;;;;4.43;2.90;;;;;;;19.26;49.17;97329.50;10572972;28;20048;-52
2023/01/22 03:38:11;;;;;;;2.38;2.17;;;;;;;19.23;49.00;97330.09;10572759;28;20063;-54
2023/01/22 03:43:32;;;;;;;3.13;2.58;;;;;;;19.22;49.07;97336.63;10601443;28;20035;-53
2023/01/22 03:48:55;;;;;;;4.70;2.83;;;;;;;19.19;48.98;97334.53;10586926;28;20066;-53
2023/01/22 03:54:15;;;;;;;3.33;2.55;;;;;;;19.17;49.12;97338.34;10601107;28;20548;-53
2023/01/22 03:59:35;;;;;;;3.85;2.45;;;;;;;19.16;48.94;97331.34;10587331;28;20055;-53
2023/01/22 04:04:56;;;;;;;4.40;2.60;;;;;;;19.14;49.05;97340.88;10571997;28;20047;-53
2023/01/22 04:10:16;;;;;;;3.45;2.60;;;;;;;19.12;49.04;97327.66;10585339;28;20039;-54
2023/01/22 04:15:37;;;;;;;3.67;2.50;;;;;;;19.11;49.01;97333.38;10571597;28;20071;-54
2023/01/22 04:21:06;;;;;;;2.70;2.35;;;;;;;19.07;49.06;97333.22;10585221;28;20116;-53
2023/01/22 04:26:36;;;;;;;2.70;2.40;;;;;;;19.06;49.03;97328.91;10571033;28;20054;-52
2023/01/22 04:31:56;;;;;;;3.22;2.28;;;;;;;19.06;48.95;97330.81;10584949;28;20427;-54
2023/01/22 04:37:34;;;;;;;3.45;2.42;;;;;;;19.03;48.87;97334.13;10585911;28;20047;-53
2023/01/22 04:42:54;;;;;;;3.10;2.25;;;;;;;19.01;48.96;97339.81;10569892;28;20036;-54
2023/01/22 04:48:14;;;;;;;2.55;2.20;;;;;;;18.99;48.97;97331.22;10569787;28;20423;-53
2023/01/22 04:53:36;;;;;;;3.35;2.30;;;;;;;18.97;48.97;97336.16;10570325;28;20055;-53
2023/01/22 04:58:56;;;;;;;2.50;2.30;;;;;;;18.98;48.90;97345.06;10569537;28;20052;-54
2023/01/22 05:04:16;;;;;;;2.72;2.45;;;;;;;18.94;48.80;97352.97;10598303;28;20035;-53
2023/01/22 05:09:35;;;;;;;2.63;2.03;;;;;;;18.94;48.87;97364.56;10569194;28;20453;-53
2023/01/22 05:14:54;;;;;;;3.30;2.40;;;;;;;18.91;49.02;97362.47;10584612;28;20051;-53
2023/01/22 05:20:16;;;;;;;3.10;2.47;;;;;;;18.90;48.77;97365.50;10582733;28;20047;-54
2023/01/22 05:25:36;;;;;;;2.83;2.13;;;;;;;18.89;48.95;97377.38;10568465;28;20043;-54
2023/01/22 05:30:57;;;;;;;2.20;1.98;;;;;;;18.87;48.90;97376.88;10581596;28;20411;-53
2023/01/22 05:36:24;;;;;;;3.42;2.38;;;;;;;18.84;48.74;97375.59;10567865;28;20052;-53
2023/01/22 05:41:46;;;;;;;2.50;2.30;;;;;;;18.82;48.81;97374.28;10580798;28;20487;-53
2023/01/22 05:47:07;;;;;;;2.53;2.13;;;;;;;18.81;48.83;97384.31;10565960;28;20056;-53
2023/01/22 05:52:45;;;;;;;;;;;;;;;18.78;48.55;97391.09;10582658;28;20047;-53
2023/01/22 05:58:07;;;;;;;3.10;2.10;;;;;;;18.77;48.67;97372.50;10567083;28;19919;-53
2023/01/22 06:03:28;;;;;;;2.20;2.00;;;;;;;18.76;48.71;97379.78;10567266;28;20504;-54
2023/01/22 06:08:50;;;;;;;2.92;2.20;;;;;;;18.74;48.74;97384.69;10566885;28;20055;-53
2023/01/22 06:14:10;;;;;;;2.30;2.10;;;;;;;18.72;48.80;97395.00;10580345;28;20043;-53
2023/01/22 06:19:29;;;;;;;2.38;2.15;;;;;;;18.71;48.88;97395.31;10566835;28;20415;-52
2023/01/22 06:24:49;;;;;;;2.70;2.08;;;;;;;18.70;48.64;97409.88;10565786;28;20043;-54
2023/01/22 06:30:10;;;;;;;3.00;2.42;;;;;;;18.69;48.60;97417.19;10565886;28;20058;-54
2023/01/22 06:35:30;;;;;;;2.38;2.17;;;;;;;18.67;48.63;97415.91;10565801;28;20055;-54
2023/01/22 06:40:54;;;;;;;2.70;2.10;;;;;;;18.64;48.75;97422.72;10581455;28;20399;-54
2023/01/22 06:46:15;;;;;;;2.70;2.20;;;;;;;18.65;48.78;97434.31;10573104;28;20047;-54
2023/01/22 06:51:51;;;;;;;2.30;2.10;;;;;;;18.64;48.98;97432.69;10566011;28;20051;-54
2023/01/22 06:57:11;;;;;;;2.75;2.25;;;;;;;18.64;48.84;97432.69;10566177;28;20055;-54
2023/01/22 07:02:32;;;;;;;2.33;2.13;;;;;;;18.64;49.00;97435.38;10573641;28;20052;-53
2023/01/22 07:07:53;;;;;;;2.30;2.10;;;;;;;18.66;49.14;97422.38;10589746;28;20051;-54
2023/01/22 07:13:14;;;;;;;3.75;2.35;;;;;;;18.67;49.20;97422.09;10602797;28;20058;-54
2023/01/22 07:18:34;;;;;;;2.90;2.10;;;;;;;18.68;49.19;97426.41;10588457;28;20054;-53
2023/01/22 07:23:53;;;;;;;3.00;2.28;;;;;;;18.70;49.34;97431.47;10602068;28;20043;-55
2023/01/22 07:29:13;;;;;;;2.10;1.90;;;;;;;18.72;49.47;97440.88;10588505;28;20056;-54
2023/01/22 07:34:32;;;;;;;2.33;2.13;;;;;;;18.75;49.62;97450.28;10587403;28;20044;-53
2023/01/22 07:39:51;;;;;;;2.60;2.25;;;;;;;18.75;49.48;97451.06;10587163;28;20511;-53
2023/01/22 07:45:11;;;;;;;2.47;2.00;;;;;;;18.78;49.47;97446.97;10587586;28;20051;-55
2023/01/22 07:50:30;;;;;;;2.40;2.20;;;;;;;18.81;49.39;97459.09;10587738;28;20081;-54
2023/01/22 07:55:50;;;;;;;3.10;2.20;;;;;;;18.83;49.30;97475.78;10587595;28;20047;-55
2023/01/22 08:01:10;;;;;;;4.00;1.98;;;;;;;18.86;49.31;97483.28;10587275;28;20062;-54
2023/01/22 08:06:29;;;;;;;2.20;2.00;;;;;;;18.89;49.29;97478.06;10586842;28;20055;-55
2023/01/22 08:11:50;;;;;;;2.08;1.88;;;;;;;18.92;49.48;97487.47;10586284;28;20055;-55
2023/01/22 08:17:09;;;;;;;2.38;2.17;;;;;;;18.95;49.19;97478.75;10571262;28;20051;-55
2023/01/22 08:22:28;;;;;;;2.30;2.10;;;;;;;18.98;49.34;97472.75;10586276;28;20055;-54
2023/01/22 08:27:48;;;;;;;3.33;1.95;;;;;;;19.02;49.26;97476.44;10585748;28;20056;-55
2023/01/22 08:33:07;;;;;;;2.35;1.98;;;;;;;19.05;49.54;97500.16;10599430;28;20048;-54
2023/01/22 08:38:26;;;;;;;2.20;2.00;;;;;;;19.09;49.66;97513.81;10599345;28;20042;-55
2023/01/22 08:43:46;;;;;;;2.30;2.00;;;;;;;19.14;49.91;97516.44;10599085;28;20040;-53
2023/01/22 08:49:06;;;;;;;4.00;3.15;;;;;;;19.17;50.22;97510.44;10584358;28;20051;-55
2023/01/22 08:54:25;;;;;;;4.30;3.30;;;;;;;19.25;50.17;97525.09;10598882;28;20116;-58
2023/01/22 08:59:45;;;;;;;3.60;3.30;;;;;;;19.26;50.21;97529.41;10584986;28;20120;-59
2023/01/22 09:05:05;;;;;;;3.70;3.28;;;;;;;19.31;50.24;97540.09;10584610;28;20438;-57
2023/01/22 09:10:25;;;;;;;5.80;2.65;;;;;;;19.33;50.25;97532.50;10598410;28;20096;-55
2023/01/22 09:15:44;;;;;;;3.75;3.00;;;;;;;19.36;50.10;97538.06;10583481;28;20055;-55
2023/01/22 09:21:04;;;;;;;6.03;3.00;;;;;;;19.37;50.28;97541.59;10583356;28;20056;-55
2023/01/22 09:26:23;;;;;;;4.45;3.00;;;;;;;19.42;49.55;97532.56;10583733;28;20415;-55
2023/01/22 09:31:43;;;;;;;3.38;2.90;;;;;;;19.44;49.37;97547.34;10597437;28;20054;-55
2023/01/22 09:37:06;;;;;;;5.20;3.25;;;;;;;19.46;49.39;97539.75;10583426;28;20055;-52
2023/01/22 09:42:31;;;;;;;3.30;2.97;;;;;;;19.49;49.55;97544.53;10596713;28;20043;-54
2023/01/22 09:47:53;;;;;;;3.60;3.30;;;;;;;19.53;49.62;97542.03;10582140;28;20063;-56
2023/01/22 09:53:16;;;;;;;2.63;2.42;;;;;;;19.56;49.24;97539.53;10581126;28;20503;-55
2023/01/22 09:58:36;;;;;;;3.45;2.83;;;;;;;19.59;49.13;97548.91;10566193;28;20500;-55
2023/01/22 10:04:01;;;;;;;4.75;3.10;;;;;;;19.64;49.35;97545.28;10581084;28;20537;-55
2023/01/22 10:09:21;;;;;;;4.18;2.90;;;;;;;19.67;49.12;97556.28;10580810;28;20035;-56
2023/01/22 10:14:41;;;;;;;43.08;22.73;;;;;;;19.71;49.17;97542.97;10581590;28;20491;-54
2023/01/22 10:20:03;;;;;;;31.98;17.30;;;;;;;19.71;49.17;97542.97;10582090;28;20063;-55
2023/01/22 10:25:23;;;;;;;29.10;15.82;;;;;;;19.78;50.73;97529.84;10565865;28;20511;-54
2023/01/22 10:30:45;;;;;;;26.50;15.40;;;;;;;-146.19;100.00;65364.44;10580982;28;20055;-54
2023/01/22 10:36:06;;;;;;;25.08;13.55;;;;;;;-146.19;100.00;65364.44;10580104;28;20055;-53
2023/01/22 10:41:28;;;;;;;25.42;13.15;;;;;;;-146.19;100.00;65364.44;10581181;28;20052;-54
2023/01/22 10:46:49;;;;;;;23.67;11.68;;;;;;;-146.19;100.00;65364.44;10580512;28;20051;-54
2023/01/22 10:52:26;;;;;;;18.00;12.75;;;;;;;-146.19;100.00;65364.44;10581265;28;20055;-53
2023/01/22 10:57:50;;;;;;;18.80;10.80;;;;;;;-146.19;100.00;65364.44;10565939;28;20056;-53
2023/01/22 11:03:19;;;;;;;17.73;10.68;;;;;;;-146.19;100.00;65364.44;10581000;28;20052;-54
2023/01/22 11:09:02;;;;;;;20.27;10.27;;;;;;;-146.19;100.00;65364.44;10581009;28;20465;-54
2023/01/22 11:14:26;;;;;;;17.75;10.10;;;;;;;-146.19;100.00;65364.44;10580702;28;20070;-53
2023/01/22 11:19:53;;;;;;;17.80;9.43;;;;;;;-146.19;100.00;65364.44;10594196;28;20070;-54
2023/01/22 11:25:13;;;;;;;15.98;9.52;;;;;;;-146.19;100.00;65364.44;10565372;28;20423;-53
2023/01/22 11:30:39;;;;;;;14.95;9.23;;;;;;;-146.19;100.00;65364.44;10579833;28;20523;-53
2023/01/22 11:36:30;;;;;;;13.98;8.82;;;;;;;-146.19;100.00;65364.44;10580217;28;20054;-54
2023/01/22 11:42:02;;;;;;;20.60;7.97;;;;;;;-146.19;100.00;65364.44;10548527;28;20052;-53
2023/01/22 11:48:04;;;;;;;14.30;8.50;;;;;;;-146.19;100.00;65364.44;10589719;28;20051;-55
2023/01/22 11:53:42;;;;;;;12.30;7.70;;;;;;;-146.19;100.00;65364.44;10402131;28;20053;-54
2023/01/22 11:59:10;;;;;;;13.88;7.90;;;;;;;-146.19;100.00;65364.44;10582314;28;20108;-55
2023/01/22 12:04:42;;;;;;;12.85;7.68;;;;;;;-146.19;100.00;65364.44;10600717;28;20039;-55
2023/01/22 12:10:10;;;;;;;10.55;7.35;;;;;;;-146.19;100.00;65364.44;10587132;28;20415;-54
2023/01/22 12:15:50;;;;;;;12.07;6.97;;;;;;;-146.19;100.00;65364.44;10600252;28;20047;-54
2023/01/22 12:21:20;;;;;;;10.57;6.93;;;;;;;-146.19;100.00;65364.44;10586506;28;20055;-54
2023/01/22 12:26:45;;;;;;;11.32;6.68;;;;;;;-146.19;100.00;65364.44;10585571;28;20117;-54
2023/01/22 12:32:09;;;;;;;10.82;6.50;;;;;;;-146.19;100.00;65364.44;10586069;28;20048;-54
2023/01/22 12:37:39;;;;;;;8.63;6.50;;;;;;;-146.19;100.00;65364.44;10585801;28;20100;-54
2023/01/22 12:43:06;;;;;;;13.00;6.90;;;;;;;-146.19;100.00;65364.44;10569547;28;20058;-55
2023/01/22 12:48:44;;;;;;;8.95;6.07;;;;;;;-146.19;100.00;65364.44;10586597;28;20043;-54
2023/01/22 12:54:28;;;;;;;9.32;6.20;;;;;;;-146.19;100.00;65364.44;10598791;28;20108;-53
2023/01/22 12:59:55;;;;;;;10.38;6.68;;;;;;;-146.19;100.00;65364.44;10584765;28;20118;-54
2023/01/22 13:05:30;;;;;;;8.43;6.50;;;;;;;-146.19;100.00;65364.44;10569476;28;20054;-54
2023/01/22 13:11:23;;;;;;;8.32;5.68;;;;;;;-146.19;100.00;65364.44;10584498;28;20055;-54
2023/01/22 13:16:58;;;;;;;8.05;5.85;;;;;;;-146.19;100.00;65364.44;10583617;28;20055;-54
2023/01/22 13:22:22;;;;;;;9.20;5.72;;;;;;;-146.19;100.00;65364.44;10584148;28;20048;-54
2023/01/22 13:27:45;;;;;;;8.10;5.82;;;;;;;-146.19;100.00;65364.44;10583826;28;20051;-54
2023/01/22 13:33:09;;;;;;;8.63;5.65;;;;;;;-146.19;100.00;65364.44;10597261;28;20043;-55
2023/01/22 13:38:31;;;;;;;8.60;5.78;;;;;;;-146.19;100.00;65364.44;10581967;28;20035;-55
2023/01/22 13:43:51;;;;;;;8.13;5.30;;;;;;;-146.19;100.00;65364.44;10583077;28;20093;-54
2023/01/22 13:49:14;;;;;;;7.93;5.25;;;;;;;-146.19;100.00;65364.44;10582272;28;20056;-54
2023/01/22 13:54:33;;;;;;;7.25;5.38;;;;;;;-146.19;100.00;65364.44;10567462;28;20124;-54
2023/01/22 13:59:58;;;;;;;6.70;5.07;;;;;;;-146.19;100.00;65364.44;10596160;28;20046;-54
2023/01/22 14:05:24;;;;;;;6.80;5.22;;;;;;;-146.19;100.00;65364.44;10582297;28;20054;-54
2023/01/22 14:10:55;;;;;;;7.03;5.05;;;;;;;-146.19;100.00;65364.44;10565477;28;20503;-54
2023/01/22 14:16:15;;;;;;;8.23;5.15;;;;;;;-146.19;100.00;65364.44;10581846;28;20052;-54
2023/01/22 14:21:36;;;;;;;6.38;5.03;;;;;;;-146.19;100.00;65364.44;10581863;28;20054;-54
2023/01/22 14:26:56;;;;;;;7.28;5.10;;;;;;;-146.19;100.00;65364.44;10581523;28;20051;-52
2023/01/22 14:32:15;;;;;;;26.45;18.05;;;;;;;-146.19;100.00;65364.44;10581627;28;20044;-54
2023/01/22 14:37:38;;;;;;;19.20;13.63;;;;;;;-146.19;100.00;65364.44;10581371;28;20108;-54
2023/01/22 14:42:59;;;;;;;17.40;12.13;;;;;;;-146.19;100.00;65364.44;10580485;28;20563;-54
2023/01/22 14:48:19;;;;;;;14.90;10.50;;;;;;;-146.19;100.00;65364.44;10580527;28;20060;-55
2023/01/22 14:53:39;;;;;;;13.95;9.60;;;;;;;-146.19;100.00;65364.44;10594592;28;20054;-54
2023/01/22 14:58:59;;;;;;;14.95;9.65;;;;;;;-146.19;100.00;65364.44;10580888;28;20056;-54
2023/01/22 15:04:18;;;;;;;13.43;8.55;;;;;;;-146.19;100.00;65364.44;10580145;28;20108;-54
2023/01/22 15:09:38;;;;;;;12.65;8.73;;;;;;;-146.19;100.00;65364.44;10580765;28;20055;-53
2023/01/22 15:14:57;;;;;;;11.75;8.55;;;;;;;-146.19;100.00;65364.44;10594810;28;20055;-54
2023/01/22 15:20:18;;;;;;;11.25;8.15;;;;;;;-146.19;100.00;65364.44;10582759;28;20411;-54
2023/01/22 15:25:37;;;;;;;10.25;7.57;;;;;;;-146.19;100.00;65364.44;10588682;28;20050;-54
2023/01/22 15:31:06;;;;;;;11.60;7.93;;;;;;;-146.19;100.00;65364.44;10588515;28;20051;-54
2023/01/22 15:36:31;;;;;;;10.80;7.50;;;;;;;-146.19;100.00;65364.44;10588313;28;20089;-53
2023/01/22 15:41:51;;;;;;;9.15;7.03;;;;;;;-146.19;100.00;65364.44;10601787;28;20436;-54
2023/01/22 15:47:10;;;;;;;9.25;7.43;;;;;;;-146.19;100.00;65364.44;10587321;28;20063;-54
2023/01/22 15:52:30;;;;;;;9.18;6.57;;;;;;;-146.19;100.00;65364.44;10587258;28;20518;-52
2023/01/22 15:57:49;;;;;;;9.77;7.05;;;;;;;-146.19;100.00;65364.44;10601078;28;20092;-52
2023/01/22 16:03:10;;;;;;;8.70;6.93;;;;;;;-146.19;100.00;65364.44;10600802;28;20047;-54
2023/01/22 16:08:30;;;;;;;8.13;6.28;;;;;;;-146.19;100.00;65364.44;10587105;28;20059;-54
2023/01/22 16:13:50;;;;;;;8.55;6.40;;;;;;;-146.19;100.00;65364.44;10586917;28;20047;-54
2023/01/22 16:19:10;;;;;;;7.95;6.47;;;;;;;-146.19;100.00;65364.44;10586862;28;20056;-54
2023/01/22 16:24:29;;;;;;;8.10;6.32;;;;;;;-146.19;100.00;65364.44;10586538;28;20052;-53
2023/01/22 16:29:49;;;;;;;7.72;6.28;;;;;;;-146.19;100.00;65364.44;10585282;28;20495;-54
2023/01/22 16:35:09;;;;;;;8.20;6.18;;;;;;;-146.19;100.00;65364.44;10586031;28;20056;-54
2023/01/22 16:40:30;;;;;;;8.73;6.32;;;;;;;-146.19;100.00;65364.44;10585847;28;20055;-53
2023/01/22 16:45:49;;;;;;;7.95;6.00;;;;;;;-146.19;100.00;65364.44;10594137;28;20063;-52
2023/01/22 16:51:20;;;;;;;7.43;5.80;;;;;;;-146.19;100.00;65364.44;10598995;28;20042;-54
2023/01/22 16:56:41;;;;;;;6.18;5.15;;;;;;;-146.19;100.00;65364.44;10584745;28;20098;-54
2023/01/22 17:02:03;;;;;;;6.97;5.53;;;;;;;-146.19;100.00;65364.44;10584341;28;20064;-54
2023/01/22 17:07:23;;;;;;;7.28;5.63;;;;;;;-146.19;100.00;65364.44;10584804;28;20051;-54
2023/01/22 17:12:42;;;;;;;6.50;5.53;;;;;;;-146.19;100.00;65364.44;10598315;28;20380;-54
2023/01/22 17:18:02;;;;;;;7.63;5.47;;;;;;;-146.19;100.00;65364.44;10584383;28;20070;-54
2023/01/22 17:23:21;;;;;;;6.78;5.40;;;;;;;-146.19;100.00;65364.44;10597768;28;20391;-54
2023/01/22 17:28:41;;;;;;;6.80;5.65;;;;;;;-146.19;100.00;65364.44;10597620;28;20039;-54
2023/01/22 17:34:03;;;;;;;6.80;5.72;;;;;;;-146.19;100.00;65364.44;10583992;28;20056;-53
2023/01/22 17:39:24;;;;;;;6.90;5.38;;;;;;;-146.19;100.00;65364.44;10597453;28;20077;-54
2023/01/22 17:44:46;;;;;;;6.22;5.28;;;;;;;-146.19;100.00;65364.44;10581768;28;20562;-54
2023/01/22 17:50:08;;;;;;;7.00;5.20;;;;;;;-146.19;100.00;65364.44;10596894;28;20040;-54
2023/01/22 17:55:28;;;;;;;5.75;5.00;;;;;;;-146.19;100.00;65364.44;10583319;28;20051;-54
2023/01/22 18:00:48;;;;;;;7.13;5.18;;;;;;;-146.19;100.00;65364.44;10582796;28;20100;-54
2023/01/22 18:06:07;;;;;;;5.82;4.70;;;;;;;-146.19;100.00;65364.44;10582555;28;20093;-54
2023/01/22 18:11:28;;;;;;;6.05;5.15;;;;;;;19.75;45.85;97792.69;10581726;28;20052;-54
2023/01/22 18:16:49;;;;;;;6.53;5.53;;;;;;;19.72;45.07;97794.13;10582144;28;20097;-54
2023/01/22 18:22:08;;;;;;;6.55;5.38;;;;;;;19.73;45.43;97800.31;10581824;28;20055;-54
2023/01/22 18:27:28;;;;;;;6.07;5.13;;;;;;;19.74;45.64;97796.53;10581570;28;20397;-55
2023/01/22 18:32:48;;;;;;;8.00;5.60;;;;;;;19.75;45.87;97790.78;10595075;28;20039;-54
2023/01/22 18:38:08;;;;;;;5.93;5.00;;;;;;;19.77;46.38;97787.78;10581156;28;20048;-55
2023/01/22 18:43:27;;;;;;;5.82;5.15;;;;;;;19.79;46.56;97796.41;10580356;28;20553;-55
2023/01/22 18:48:52;;;;;;;9.20;5.03;;;;;;;19.82;47.13;97803.91;10580208;28;20401;-54
2023/01/22 18:54:11;;;;;;;9.70;5.38;;;;;;;19.82;47.13;97803.91;10583065;28;20052;-55
2023/01/22 18:59:31;;;;;;;8.05;4.82;;;;;;;19.85;47.50;97811.41;10589604;28;20082;-56
2023/01/22 19:04:51;;;;;;;10.15;5.20;;;;;;;-146.19;100.00;65364.44;10559904;28;20047;-56
2023/01/22 19:10:11;;;;;;;8.77;5.95;;;;;;;19.91;48.02;97818.31;10602895;28;20035;-57
2023/01/22 19:15:32;;;;;;;14.73;8.88;;;;;;;19.95;48.48;97823.94;10589307;28;20044;-55
2023/01/22 19:20:51;;;;;;;23.58;10.80;;;;;;;-146.19;100.00;65364.44;10589088;28;20104;-56
2023/01/22 19:26:27;;;;;;;16.95;9.25;;;;;;;-146.19;100.00;65364.44;10588738;28;20044;-58
2023/01/22 19:31:50;;;;;;;17.35;8.60;;;;;;;-146.19;100.00;65364.44;10588578;28;20059;-58
2023/01/22 19:37:10;;;;;;;14.02;7.45;;;;;;;-146.19;100.00;65364.44;10588374;28;20048;-58
2023/01/22 19:42:29;;;;;;;13.75;7.78;;;;;;;-146.19;100.00;65364.44;10601764;28;20035;-57
2023/01/22 19:47:49;;;;;;;13.98;7.15;;;;;;;-146.19;100.00;65364.44;10587357;28;20056;-56
2023/01/22 19:53:08;;;;;;;14.57;7.47;;;;;;;-146.19;100.00;65364.44;10587766;28;20108;-58
2023/01/22 19:58:28;;;;;;;12.07;6.57;;;;;;;-146.19;100.00;65364.44;10601001;28;20040;-59
2023/01/22 20:03:48;;;;;;;15.07;6.88;;;;;;;-146.19;100.00;65364.44;10600805;28;20036;-58
2023/01/22 20:09:07;;;;;;;14.35;6.75;;;;;;;-146.19;100.00;65364.44;10586196;28;20063;-55
2023/01/22 20:14:29;;;;;;;14.15;7.78;;;;;;;20.28;46.44;97886.81;10586771;28;20048;-54
2023/01/22 20:19:48;;;;;;;11.45;6.93;;;;;;;20.29;46.97;97896.56;10586721;28;20052;-54
2023/01/22 20:25:08;;;;;;;14.10;6.72;;;;;;;20.33;46.95;97902.97;10585649;28;20556;-54
2023/01/22 20:30:28;;;;;;;10.15;6.53;;;;;;;20.38;46.79;97903.97;10586170;28;20051;-55
2023/01/22 20:35:47;;;;;;;9.98;6.75;;;;;;;20.39;46.72;97908.28;10585198;28;20540;-54
2023/01/22 20:41:10;;;;;;;7.68;5.65;;;;;;;20.41;46.59;97896.03;10585213;28;20048;-54
2023/01/22 20:46:29;;;;;;;9.88;5.47;;;;;;;20.44;46.54;97905.44;10584237;28;20062;-55
2023/01/22 20:51:48;;;;;;;8.40;5.70;;;;;;;20.47;46.38;97923.81;10598348;28;20044;-55
2023/01/22 20:57:08;;;;;;;8.63;5.70;;;;;;;20.49;46.27;97935.94;10584034;28;20047;-55
2023/01/22 21:02:28;;;;;;;8.15;5.63;;;;;;;20.51;46.43;97932.94;10598065;28;20543;-56
2023/01/22 21:07:47;;;;;;;7.50;5.45;;;;;;;20.52;46.34;97937.22;10597904;28;20447;-56
2023/01/22 21:13:07;;;;;;;7.80;5.70;;;;;;;20.54;46.27;97951.25;10584111;28;20044;-55
2023/01/22 21:18:26;;;;;;;7.35;5.32;;;;;;;20.54;46.21;97956.66;10597439;28;20043;-54
2023/01/22 21:23:47;;;;;;;7.13;5.35;;;;;;;20.54;46.22;97964.78;10597065;28;20472;-55
2023/01/22 21:29:11;;;;;;;6.38;5.00;;;;;;;20.55;46.20;97963.69;10583437;28;20055;-55
2023/01/22 21:34:32;;;;;;;7.72;5.60;;;;;;;20.57;46.45;97955.28;10582543;28;20495;-55
2023/01/22 21:39:51;;;;;;;6.88;4.88;;;;;;;20.56;46.23;97965.28;10582944;28;20055;-55
2023/01/22 21:50:49;;;;;;;7.32;5.07;;;;;;;20.55;46.48;97963.69;10582334;28;20060;-55
2023/01/22 21:56:08;;;;;;;6.78;4.68;;;;;;;20.54;46.57;97967.50;10582711;28;20047;-54
2023/01/22 22:01:30;;;;;;;5.72;4.65;;;;;;;20.55;47.01;97986.16;10582499;28;20047;-55
2023/01/22 22:06:50;;;;;;;6.60;5.13;;;;;;;20.56;46.99;97992.34;10595915;28;20036;-55
2023/01/22 22:12:09;;;;;;;7.03;5.03;;;;;;;20.53;47.08;97987.56;10581235;28;20526;-55
2023/01/22 22:17:29;;;;;;;5.93;4.68;;;;;;;20.53;47.01;97982.16;10582052;28;20055;-55
2023/01/22 22:22:48;;;;;;;6.82;5.22;;;;;;;20.52;47.10;97977.81;10595410;28;20093;-55
2023/01/22 22:28:07;;;;;;;7.47;5.10;;;;;;;20.51;47.22;97995.19;10581193;28;20056;-55
2023/01/22 22:33:27;;;;;;;7.63;4.93;;;;;;;20.50;47.14;98005.22;10580900;28;20511;-55
2023/01/22 22:38:47;;;;;;;6.47;4.95;;;;;;;20.50;47.50;97998.97;10594968;28;20035;-55
2023/01/22 22:44:06;;;;;;;6.38;4.88;;;;;;;20.48;47.42;97995.78;10594852;28;20040;-54
2023/01/22 22:49:26;;;;;;;7.28;5.40;;;;;;;20.48;47.25;98009.31;10580456;28;20063;-54
2023/01/22 22:54:46;;;;;;;6.72;5.00;;;;;;;20.45;47.38;97999.09;10581059;28;20055;-54
2023/01/22 23:00:10;;;;;;;7.00;5.03;;;;;;;20.45;47.56;98013.44;10581003;28;20051;-54
2023/01/22 23:05:35;;;;;;;5.70;4.68;;;;;;;20.43;47.49;98014.84;10594313;28;20483;-54
2023/01/22 23:10:55;;;;;;;6.85;4.85;;;;;;;20.42;47.42;98014.00;10594290;28;20047;-54
2023/01/22 23:16:17;;;;;;;5.63;4.18;;;;;;;20.41;47.54;98025.97;10580537;28;20051;-55
2023/01/22 23:21:40;;;;;;;6.65;4.68;;;;;;;20.39;47.75;98036.28;10580619;28;20070;-55
2023/01/22 23:26:59;;;;;;;6.20;4.72;;;;;;;20.38;47.58;98034.66;10593890;28;20044;-53
2023/01/22 23:32:25;;;;;;;6.05;4.35;;;;;;;20.36;47.88;98036.88;10580290;28;20465;-54
2023/01/22 23:37:44;;;;;;;5.00;4.25;;;;;;;20.35;47.74;98040.69;10580025;28;20047;-54
2023/01/22 23:43:04;;;;;;;6.32;4.53;;;;;;;20.33;47.54;98032.88;10584791;28;20059;-54
2023/01/22 23:48:24;;;;;;;6.05;4.78;;;;;;;20.32;47.68;98042.06;10587347;28;20060;-54
2023/01/22 23:53:51;;;;;;;5.72;4.80;;;;;;;20.31;47.58;98045.09;10587806;28;20051;-54
2023/01/22 23:59:11;;;;;;;5.60;4.27;;;;;;;20.28;47.83;98051.88;10587558;28;20059;-54
